Time;durP1;ratioP1;P1;durP2;ratioP2;P2;SDS_P1;SDS_P2;PMS_P1;PMS_P2;Temp;Humidity;BMP_temperature;BMP_pressure;BME280_temperature;BME280_humidity;BME280_pressure;Samples;Min_cycle;Max_cycle;Signal;HPM_P1;HPM_P2
2022/10/02 00:02:29;;;;;;;6.82;4.90;;;18.30;82.50;;;;;;5072166;28;20421;-67
2022/10/02 00:05:03;;;;;;;6.90;5.15;;;18.30;82.40;;;;;;5072595;28;20067;-67
2022/10/02 00:07:43;;;;;;;6.15;4.50;;;18.30;82.30;;;;;;5071775;28;20368;-67
2022/10/02 00:10:23;;;;;;;5.78;4.47;;;18.30;82.30;;;;;;5071174;28;20029;-67
2022/10/02 00:12:53;;;;;;;5.70;4.40;;;18.30;82.20;;;;;;5071902;28;20066;-67
2022/10/02 00:15:23;;;;;;;5.80;4.53;;;18.30;82.30;;;;;;5072521;28;20493;-67
2022/10/02 00:17:52;;;;;;;5.93;4.50;;;18.30;81.90;;;;;;5066024;28;20021;-67
2022/10/02 00:20:23;;;;;;;6.57;4.93;;;18.20;81.70;;;;;;5059945;28;20361;-67
2022/10/02 00:23:05;;;;;;;;;;;18.30;81.70;;;;;;5066549;28;20108;-67
2022/10/02 00:25:42;;;;;;;4.00;3.40;;;18.30;81.50;;;;;;5061689;28;20020;-67
2022/10/02 00:28:46;;;;;;;5.53;4.10;;;18.30;81.70;;;;;;5071918;28;20021;-67
2022/10/02 00:31:24;;;;;;;5.03;3.80;;;18.30;81.70;;;;;;5058892;28;20989;-67
2022/10/02 00:34:34;;;;;;;4.70;4.07;;;18.30;81.70;;;;;;5065354;28;20135;-67
2022/10/02 00:37:00;;;;;;;6.28;4.35;;;18.30;81.50;;;;;;5063016;28;20155;-67
2022/10/02 00:39:44;;;;;;;5.32;3.88;;;18.30;81.50;;;;;;5068365;28;20711;-67
2022/10/02 00:42:28;;;;;;;5.53;3.97;;;18.30;81.50;;;;;;5070336;28;20361;-67
2022/10/02 00:45:12;;;;;;;4.63;3.90;;;18.30;81.30;;;;;;5076604;28;20039;-67
2022/10/02 00:47:52;;;;;;;5.75;4.20;;;18.30;81.30;;;;;;5070655;28;20029;-67
2022/10/02 00:50:26;;;;;;;4.43;3.85;;;18.30;81.10;;;;;;5068985;28;20025;-67
2022/10/02 00:53:13;;;;;;;5.25;3.92;;;18.30;81.20;;;;;;5071718;28;20107;-68
2022/10/02 00:56:00;;;;;;;5.63;4.20;;;18.30;81.00;;;;;;5070706;28;20232;-68
2022/10/02 00:58:30;;;;;;;3.65;3.20;;;18.30;81.00;;;;;;5071196;28;20067;-67
2022/10/02 01:01:13;;;;;;;5.10;3.78;;;18.30;81.00;;;;;;5068436;28;20032;-67
2022/10/02 01:03:41;;;;;;;3.47;3.03;;;18.40;81.00;;;;;;5068431;28;20020;-67
2022/10/02 01:06:07;;;;;;;4.78;3.47;;;18.30;80.90;;;;;;5070562;28;20520;-67
2022/10/02 01:08:35;;;;;;;3.78;3.40;;;18.40;81.00;;;;;;5070942;28;20056;-67
2022/10/02 01:11:01;;;;;;;4.57;3.33;;;18.40;80.90;;;;;;5068364;28;20028;-67
2022/10/02 01:13:28;;;;;;;5.43;3.85;;;18.40;80.90;;;;;;5070451;28;20024;-67
2022/10/02 01:15:59;;;;;;;4.20;3.45;;;18.40;80.80;;;;;;5067613;28;20077;-67
2022/10/02 01:18:26;;;;;;;3.28;2.97;;;18.40;80.80;;;;;;5067167;28;20388;-67
2022/10/02 01:20:56;;;;;;;4.03;3.28;;;18.40;80.80;;;;;;5068124;28;20043;-67
2022/10/02 01:24:04;;;;;;;4.22;3.67;;;18.40;80.70;;;;;;5069024;28;20032;-67
2022/10/02 01:26:30;;;;;;;3.90;3.30;;;18.40;80.70;;;;;;5068228;28;20405;-67
2022/10/02 01:28:56;;;;;;;4.13;3.58;;;18.40;80.70;;;;;;5062881;28;20515;-67
2022/10/02 01:31:23;;;;;;;4.47;3.40;;;18.40;80.70;;;;;;5078161;28;20031;-67
2022/10/02 01:33:50;;;;;;;4.45;3.60;;;18.40;80.70;;;;;;5074134;28;20035;-67
2022/10/02 01:36:16;;;;;;;4.30;3.55;;;18.50;80.60;;;;;;5070779;28;20035;-67
2022/10/02 01:38:43;;;;;;;3.70;3.30;;;18.50;80.60;;;;;;5065552;28;20406;-67
2022/10/02 01:41:12;;;;;;;4.18;3.78;;;18.50;80.70;;;;;;5069882;28;20033;-67
2022/10/02 01:43:48;;;;;;;4.57;3.55;;;18.50;80.50;;;;;;5074011;28;20450;-67
2022/10/02 01:46:35;;;;;;;4.22;3.65;;;18.50;80.20;;;;;;5070082;28;20051;-67
2022/10/02 01:49:20;;;;;;;4.60;3.17;;;18.50;80.20;;;;;;5066347;28;20109;-67
2022/10/02 01:51:54;;;;;;;4.10;3.67;;;18.60;80.30;;;;;;5078755;28;20017;-67
2022/10/02 01:54:26;;;;;;;5.28;3.63;;;18.60;80.10;;;;;;5070535;28;20023;-67
2022/10/02 01:57:22;;;;;;;5.88;3.92;;;18.60;80.10;;;;;;5071600;28;20267;-68
2022/10/02 02:00:09;;;;;;;4.68;3.78;;;18.60;79.90;;;;;;5059665;28;20068;-67
2022/10/02 02:02:55;;;;;;;3.70;3.10;;;18.60;80.00;;;;;;5068528;28;20028;-67
2022/10/02 02:05:20;;;;;;;4.07;3.38;;;18.60;79.90;;;;;;5078653;28;20116;-67
2022/10/02 02:07:57;;;;;;;4.38;3.25;;;18.60;80.10;;;;;;5078202;28;20539;-67
2022/10/02 02:10:36;;;;;;;3.85;3.13;;;18.70;80.10;;;;;;5074664;28;20030;-67
2022/10/02 02:13:14;;;;;;;4.28;3.58;;;18.70;80.00;;;;;;5078618;28;20028;-67
2022/10/02 02:15:49;;;;;;;3.67;3.13;;;18.70;80.00;;;;;;5071575;28;20489;-67
2022/10/02 02:18:49;;;;;;;4.15;3.30;;;18.70;79.90;;;;;;5060127;28;20107;-67
2022/10/02 02:21:25;;;;;;;3.88;3.30;;;18.80;80.00;;;;;;5070204;28;20483;-67
2022/10/02 02:23:53;;;;;;;4.32;3.40;;;18.80;80.00;;;;;;5069927;28;20047;-67
2022/10/02 02:26:20;;;;;;;4.00;3.30;;;18.80;80.10;;;;;;5067787;28;20032;-67
2022/10/02 02:28:51;;;;;;;3.72;3.28;;;18.80;80.30;;;;;;5069855;28;20032;-67
2022/10/02 02:31:21;;;;;;;3.72;3.38;;;18.80;80.60;;;;;;5069485;28;20035;-67
2022/10/02 02:33:53;;;;;;;4.05;3.55;;;18.80;80.90;;;;;;5067742;28;20063;-67
2022/10/02 02:36:22;;;;;;;4.20;3.40;;;18.80;81.00;;;;;;5069621;28;20020;-67
2022/10/02 02:38:53;;;;;;;5.03;3.88;;;18.80;81.30;;;;;;5070452;28;20328;-67
2022/10/02 02:41:27;;;;;;;4.53;3.90;;;18.80;81.50;;;;;;5069101;28;21126;-67
2022/10/02 02:44:04;;;;;;;5.13;3.90;;;18.80;81.70;;;;;;5063218;28;20559;-67
2022/10/02 02:46:29;;;;;;;5.13;3.78;;;18.80;82.00;;;;;;5069309;28;20027;-67
2022/10/02 02:49:07;;;;;;;5.72;4.07;;;18.70;82.10;;;;;;5070118;28;20407;-67
2022/10/02 02:51:41;;;;;;;5.07;4.07;;;18.70;82.30;;;;;;5052082;28;20119;-67
2022/10/02 02:54:49;;;;;;;7.88;4.43;;;18.70;82.40;;;;;;5069546;28;20105;-67
2022/10/02 02:57:19;;;;;;;7.53;4.85;;;18.70;82.70;;;;;;5072695;28;20044;-67
2022/10/02 02:59:47;;;;;;;7.95;4.90;;;18.70;82.90;;;;;;5073875;28;20476;-67
2022/10/02 03:02:13;;;;;;;5.75;4.72;;;18.60;83.00;;;;;;5073182;28;20042;-67
2022/10/02 03:04:38;;;;;;;5.35;4.47;;;18.70;83.20;;;;;;5074052;28;20028;-67
2022/10/02 03:07:05;;;;;;;5.20;4.63;;;18.60;83.30;;;;;;5073356;28;20070;-68
2022/10/02 03:09:32;;;;;;;5.63;4.28;;;18.60;83.50;;;;;;5066760;28;20435;-67
2022/10/02 03:12:03;;;;;;;5.85;4.07;;;18.60;83.70;;;;;;5069667;28;20046;-67
2022/10/02 03:14:41;;;;;;;5.38;4.20;;;18.60;83.90;;;;;;5069376;28;20024;-67
2022/10/02 03:17:27;;;;;;;5.30;4.13;;;18.60;84.10;;;;;;5071894;28;20052;-67
2022/10/02 03:20:10;;;;;;;5.28;3.80;;;18.60;84.30;;;;;;5072654;28;20044;-67
2022/10/02 03:23:07;;;;;;;4.53;4.03;;;18.60;84.60;;;;;;5073133;28;20032;-67
2022/10/02 03:26:11;;;;;;;4.97;4.15;;;18.50;84.80;;;;;;5031841;28;20037;-67
2022/10/02 03:28:50;;;;;;;4.82;3.70;;;18.50;85.10;;;;;;5070111;28;20059;-67
2022/10/02 03:31:19;;;;;;;5.25;3.88;;;18.50;85.30;;;;;;5072960;28;20028;-67
2022/10/02 03:33:46;;;;;;;3.75;3.30;;;18.50;85.80;;;;;;5076476;28;20044;-67
2022/10/02 03:36:15;;;;;;;4.55;3.30;;;18.50;86.10;;;;;;5073180;28;20357;-67
2022/10/02 03:38:42;;;;;;;5.47;3.70;;;18.50;86.40;;;;;;5076148;28;20387;-67
2022/10/02 03:41:07;;;;;;;4.68;3.50;;;18.40;86.80;;;;;;5071911;28;20055;-67
2022/10/02 03:43:33;;;;;;;3.70;3.28;;;18.40;87.70;;;;;;5072642;28;20126;-67
2022/10/02 03:45:58;;;;;;;3.97;3.00;;;18.40;87.40;;;;;;5072638;28;20111;-67
2022/10/02 03:48:24;;;;;;;3.30;3.00;;;18.40;87.60;;;;;;5072529;28;20046;-67
2022/10/02 03:50:50;;;;;;;4.10;3.05;;;18.30;87.90;;;;;;5071965;28;20024;-67
2022/10/02 03:53:23;;;;;;;4.75;3.58;;;18.30;88.20;;;;;;5072459;28;20025;-67
2022/10/02 03:55:59;;;;;;;4.45;3.15;;;18.30;88.40;;;;;;5071342;28;20996;-67
2022/10/02 03:58:25;;;;;;;3.38;3.05;;;18.30;88.60;;;;;;5068242;28;20123;-67
2022/10/02 04:01:00;;;;;;;4.72;3.60;;;18.30;88.90;;;;;;5068462;28;20100;-67
2022/10/02 04:03:40;;;;;;;3.90;3.22;;;18.30;89.20;;;;;;5075665;28;20043;-67
2022/10/02 04:06:14;;;;;;;4.05;3.45;;;18.30;89.20;;;;;;5075685;28;20491;-67
2022/10/02 04:08:53;;;;;;;4.72;3.22;;;18.30;89.40;;;;;;5073291;28;20031;-67
2022/10/02 04:11:37;;;;;;;3.70;3.05;;;18.30;89.60;;;;;;5072380;28;20029;-67
2022/10/02 04:14:18;;;;;;;3.90;3.50;;;18.30;89.70;;;;;;5072684;28;20480;-67
2022/10/02 04:16:56;;;;;;;4.22;3.30;;;18.30;89.80;;;;;;5073337;28;20024;-67
2022/10/02 04:19:28;;;;;;;5.63;3.70;;;18.30;90.00;;;;;;5078811;28;20027;-67
2022/10/02 04:22:20;;;;;;;3.95;3.30;;;18.30;90.20;;;;;;5076053;28;20494;-67
2022/10/02 04:24:58;;;;;;;3.40;3.10;;;18.30;90.00;;;;;;5063976;28;20067;-67
2022/10/02 04:27:41;;;;;;;4.50;3.00;;;18.20;90.10;;;;;;5071482;28;20043;-67
2022/10/02 04:30:09;;;;;;;5.30;3.55;;;18.20;90.20;;;;;;5071068;28;20040;-67
2022/10/02 04:32:35;;;;;;;3.53;3.10;;;18.20;90.30;;;;;;5063410;28;20052;-67
2022/10/02 04:35:27;;;;;;;3.72;3.20;;;18.20;90.40;;;;;;5072360;28;20083;-68
2022/10/02 04:38:14;;;;;;;3.72;3.20;;;18.20;90.40;;;;;;5063454;28;20039;-67
2022/10/02 04:41:11;;;;;;;3.72;2.90;;;18.30;90.50;;;;;;5080693;28;20510;-67
2022/10/02 04:43:45;;;;;;;3.35;3.05;;;18.30;90.50;;;;;;5072574;28;20050;-67
2022/10/02 04:46:36;;;;;;;4.07;3.30;;;18.30;90.60;;;;;;5062661;28;20492;-67
2022/10/02 04:49:31;;;;;;;3.63;3.20;;;18.30;90.80;;;;;;5072046;28;20029;-67
2022/10/02 04:52:26;;;;;;;3.47;3.03;;;18.40;90.60;;;;;;5068004;28;20460;-67
2022/10/02 04:55:06;;;;;;;3.78;3.38;;;18.40;90.70;;;;;;5060908;28;20024;-67
2022/10/02 04:57:59;;;;;;;4.15;3.35;;;18.40;90.80;;;;;;5070844;28;20054;-67
2022/10/02 05:00:35;;;;;;;5.80;3.70;;;18.40;90.70;;;;;;5067128;28;20254;-67
2022/10/02 05:03:21;;;;;;;4.07;3.53;;;18.40;90.80;;;;;;5070714;28;20364;-67
2022/10/02 05:06:12;;;;;;;4.55;3.60;;;18.40;90.70;;;;;;5070106;28;20149;-67
2022/10/02 05:08:57;;;;;;;;;;;18.40;90.70;;;;;;5072165;28;20020;-67
2022/10/02 05:11:56;;;;;;;4.55;3.28;;;18.40;90.80;;;;;;5064936;28;19916;-67
2022/10/02 05:14:40;;;;;;;4.70;3.50;;;18.40;90.70;;;;;;5068756;28;20078;-67
2022/10/02 05:17:39;;;;;;;4.95;3.95;;;18.40;90.80;;;;;;5070627;28;20067;-67
2022/10/02 05:20:08;;;;;;;4.22;3.42;;;18.30;90.90;;;;;;5064139;28;20044;-68
2022/10/02 05:22:43;;;;;;;4.32;3.60;;;18.30;91.00;;;;;;5070609;28;20025;-67
2022/10/02 05:25:28;;;;;;;4.20;3.67;;;18.30;91.10;;;;;;5065850;28;20020;-67
2022/10/02 05:28:03;;;;;;;4.90;3.80;;;18.30;91.20;;;;;;5068291;28;20028;-67
2022/10/02 05:30:44;;;;;;;6.18;4.43;;;18.30;91.30;;;;;;5064875;28;20039;-67
2022/10/02 05:33:16;;;;;;;6.75;4.13;;;18.30;91.30;;;;;;5068469;28;20610;-67
2022/10/02 05:35:56;;;;;;;5.43;4.22;;;18.30;91.50;;;;;;5072062;28;20023;-67
2022/10/02 05:38:36;;;;;;;5.40;4.40;;;18.20;91.60;;;;;;5071137;28;20020;-67
2022/10/02 05:41:15;;;;;;;4.87;4.37;;;18.20;91.70;;;;;;5065623;28;20035;-67
2022/10/02 05:43:44;;;;;;;5.28;4.53;;;18.20;91.70;;;;;;5069447;28;20044;-67
2022/10/02 05:46:22;;;;;;;6.10;4.20;;;18.10;91.90;;;;;;5069345;28;20020;-67
2022/10/02 05:48:54;;;;;;;5.13;4.15;;;18.10;92.00;;;;;;5069514;28;20554;-67
2022/10/02 05:51:35;;;;;;;5.78;4.72;;;18.10;92.20;;;;;;5060074;28;20028;-67
2022/10/02 05:54:15;;;;;;;5.93;5.10;;;18.10;92.30;;;;;;5067617;28;20020;-67
2022/10/02 05:56:50;;;;;;;5.72;4.80;;;18.10;92.50;;;;;;5074404;28;20024;-67
2022/10/02 05:59:24;;;;;;;6.05;4.53;;;18.10;92.60;;;;;;5074430;28;20055;-68
2022/10/02 06:01:51;;;;;;;4.63;4.22;;;18.10;92.80;;;;;;5067875;28;20016;-67
2022/10/02 06:04:32;;;;;;;5.40;4.63;;;18.10;92.90;;;;;;5069876;28;20025;-68
2022/10/02 06:07:05;;;;;;;5.60;5.00;;;18.20;93.00;;;;;;5072848;28;20021;-68
2022/10/02 06:09:47;;;;;;;5.63;4.75;;;18.20;93.10;;;;;;5078717;28;20443;-67
2022/10/02 06:12:38;;;;;;;5.30;4.78;;;18.20;93.10;;;;;;5063918;28;20069;-68
2022/10/02 06:15:21;;;;;;;5.93;4.97;;;18.20;93.10;;;;;;5073388;28;20021;-67
2022/10/02 06:18:16;;;;;;;5.85;4.70;;;18.30;93.30;;;;;;5075843;28;20414;-67
2022/10/02 06:20:49;;;;;;;5.47;4.45;;;18.30;93.10;;;;;;5069791;28;20047;-67
2022/10/02 06:23:26;;;;;;;7.28;5.25;;;18.30;93.30;;;;;;5069463;28;20028;-67
2022/10/02 06:26:00;;;;;;;8.32;6.00;;;18.30;93.30;;;;;;5067938;28;20028;-67
2022/10/02 06:28:43;;;;;;;5.88;4.90;;;18.30;93.50;;;;;;5077962;28;20396;-67
2022/10/02 06:31:25;;;;;;;8.10;5.30;;;18.30;93.50;;;;;;5072690;28;20048;-67
2022/10/02 06:33:51;;;;;;;6.28;5.50;;;18.30;93.70;;;;;;5076916;28;20031;-67
2022/10/02 06:36:36;;;;;;;7.80;5.40;;;18.30;94.00;;;;;;5076327;28;20383;-67
2022/10/02 06:39:20;;;;;;;5.78;4.88;;;18.30;94.20;;;;;;5079365;28;20027;-66
2022/10/02 06:42:04;;;;;;;5.43;4.80;;;18.40;94.10;;;;;;5076488;28;20032;-67
2022/10/02 06:44:47;;;;;;;6.22;4.88;;;18.40;94.30;;;;;;5074044;28;20263;-67
2022/10/02 06:47:34;;;;;;;5.75;4.90;;;18.40;94.30;;;;;;5073484;28;20027;-67
2022/10/02 06:50:19;;;;;;;5.82;5.13;;;18.50;94.60;;;;;;5072112;28;20028;-67
2022/10/02 06:52:57;;;;;;;7.05;5.28;;;18.50;94.70;;;;;;5069546;28;20036;-67
2022/10/02 06:55:47;;;;;;;5.68;4.97;;;18.50;94.60;;;;;;5073564;28;20372;-67
2022/10/02 06:58:31;;;;;;;5.35;4.80;;;18.60;94.80;;;;;;5072619;28;20046;-67
2022/10/02 07:01:37;;;;;;;5.38;4.45;;;18.60;94.80;;;;;;5072746;28;20107;-67
2022/10/02 07:04:24;;;;;;;5.82;5.22;;;18.60;94.70;;;;;;5070822;28;20060;-67
2022/10/02 07:07:05;;;;;;;5.95;5.03;;;18.70;94.80;;;;;;5073741;28;20055;-67
2022/10/02 07:09:55;;;;;;;6.20;4.93;;;18.60;94.80;;;;;;5072212;28;20028;-67
2022/10/02 07:12:42;;;;;;;6.78;5.03;;;18.70;95.00;;;;;;5073033;28;20070;-67
2022/10/02 07:15:17;;;;;;;6.57;5.40;;;18.70;94.90;;;;;;5077443;28;20111;-67
2022/10/02 07:17:42;;;;;;;5.95;5.07;;;18.70;95.10;;;;;;5073159;28;20412;-67
2022/10/02 07:20:22;;;;;;;6.50;5.30;;;18.70;95.30;;;;;;5073010;28;20028;-67
2022/10/02 07:22:59;;;;;;;7.47;5.68;;;18.80;95.20;;;;;;5070860;28;20021;-67
2022/10/02 07:25:57;;;;;;;6.85;5.53;;;18.80;95.30;;;;;;5070623;28;20378;-67
2022/10/02 07:28:36;;;;;;;7.53;5.32;;;18.80;95.20;;;;;;5071245;28;20070;-67
2022/10/02 07:31:20;;;;;;;6.65;5.00;;;18.80;95.30;;;;;;5072460;28;20020;-67
2022/10/02 07:34:01;;;;;;;8.38;5.88;;;18.80;95.20;;;;;;5062526;28;20024;-67
2022/10/02 07:36:48;;;;;;;7.10;5.73;;;18.80;95.50;;;;;;5069402;28;20082;-67
2022/10/02 07:39:32;;;;;;;7.22;5.70;;;18.80;95.50;;;;;;5071570;28;20562;-67
2022/10/02 07:42:06;;;;;;;8.52;6.63;;;18.90;95.50;;;;;;5069500;28;20429;-67
2022/10/02 07:44:54;;;;;;;7.93;6.30;;;18.90;95.80;;;;;;5077446;28;20040;-67
2022/10/02 07:47:23;;;;;;;8.45;6.28;;;18.90;95.70;;;;;;5065959;28;20049;-66
2022/10/02 07:50:10;;;;;;;10.18;7.03;;;18.90;96.10;;;;;;5073521;28;20039;-66
2022/10/02 07:52:52;;;;;;;7.90;6.22;;;18.90;96.00;;;;;;5067761;28;20396;-67
2022/10/02 07:55:22;;;;;;;8.27;6.28;;;19.00;96.00;;;;;;5079015;28;20560;-66
2022/10/02 07:58:04;;;;;;;7.70;5.65;;;19.00;96.10;;;;;;5077131;28;20074;-68
2022/10/02 08:00:39;;;;;;;7.60;6.18;;;19.00;95.90;;;;;;5070932;28;20035;-66
2022/10/02 08:03:15;;;;;;;7.70;5.70;;;19.10;96.00;;;;;;5071521;28;20025;-66
2022/10/02 08:05:47;;;;;;;7.05;6.35;;;19.10;95.80;;;;;;5074483;28;20035;-67
2022/10/02 08:08:49;;;;;;;7.45;6.50;;;19.10;95.80;;;;;;5072165;28;20031;-66
2022/10/02 08:11:20;;;;;;;7.05;5.55;;;19.10;95.50;;;;;;5045189;28;20044;-67
2022/10/02 08:13:49;;;;;;;;;;;19.10;95.70;;;;;;5072550;28;20071;-66
2022/10/02 08:16:18;;;;;;;7.25;5.70;;;19.00;95.10;;;;;;5062724;28;20291;-66
2022/10/02 08:18:58;;;;;;;7.88;6.03;;;19.00;95.50;;;;;;5071982;28;20492;-67
2022/10/02 08:21:26;;;;;;;6.05;5.40;;;19.10;95.60;;;;;;5071480;28;20032;-66
2022/10/02 08:24:06;;;;;;;8.75;6.63;;;19.10;95.70;;;;;;5074991;28;20024;-66
2022/10/02 08:26:59;;;;;;;7.22;6.53;;;19.10;95.50;;;;;;5068910;28;20032;-66
2022/10/02 08:29:43;;;;;;;7.63;6.13;;;19.10;95.20;;;;;;5069959;28;20531;-66
2022/10/02 08:32:12;;;;;;;7.63;5.95;;;19.20;95.20;;;;;;5069253;28;20020;-66
2022/10/02 08:34:40;;;;;;;6.22;5.20;;;19.30;95.10;;;;;;5071782;28;20020;-66
2022/10/02 08:37:28;;;;;;;6.72;5.60;;;19.30;95.10;;;;;;5067530;28;20071;-66
2022/10/02 08:40:18;;;;;;;5.55;4.95;;;19.30;94.70;;;;;;5074583;28;20032;-67
2022/10/02 08:43:05;;;;;;;6.97;6.13;;;19.30;94.70;;;;;;5071617;28;20048;-66
2022/10/02 08:45:33;;;;;;;6.63;5.63;;;19.30;94.50;;;;;;5070767;28;20024;-66
2022/10/02 08:48:19;;;;;;;6.82;6.13;;;19.30;94.40;;;;;;5071129;28;20028;-66
2022/10/02 08:51:04;;;;;;;8.00;5.85;;;19.40;94.60;;;;;;5069252;28;20021;-66
2022/10/02 08:53:50;;;;;;;7.68;5.90;;;19.40;94.30;;;;;;5075289;28;20077;-66
2022/10/02 08:56:38;;;;;;;7.03;5.38;;;19.40;94.10;;;;;;5072271;28;20024;-66
2022/10/02 08:59:17;;;;;;;7.28;5.40;;;19.40;93.90;;;;;;5070467;28;20422;-66
2022/10/02 09:01:49;;;;;;;6.10;5.20;;;19.50;94.00;;;;;;5071488;28;20033;-66
2022/10/02 09:04:39;;;;;;;5.45;4.70;;;19.40;94.10;;;;;;5070776;28;20016;-66
2022/10/02 09:07:14;;;;;;;4.95;4.43;;;19.50;94.00;;;;;;5071460;28;20020;-66
2022/10/02 09:09:45;;;;;;;6.10;4.55;;;19.60;93.80;;;;;;5073909;28;20056;-67
2022/10/02 09:12:30;;;;;;;5.47;4.30;;;19.60;93.80;;;;;;5072109;28;20383;-66
2022/10/02 09:15:30;;;;;;;4.88;4.35;;;19.60;93.40;;;;;;5071542;28;20081;-67
2022/10/02 09:18:15;;;;;;;4.75;3.70;;;19.60;93.10;;;;;;5071922;28;20032;-67
2022/10/02 09:21:07;;;;;;;5.07;4.15;;;19.60;93.00;;;;;;5069811;28;20033;-67
2022/10/02 09:24:14;;;;;;;4.35;3.70;;;19.60;93.00;;;;;;5070139;28;20048;-70
2022/10/02 09:26:50;;;;;;;4.10;3.40;;;19.60;92.80;;;;;;5068230;28;20822;-66
2022/10/02 09:30:10;;;;;;;3.70;3.38;;;19.70;92.70;;;;;;5062207;28;20058;-66
2022/10/02 09:32:54;;;;;;;4.90;3.67;;;19.70;92.60;;;;;;5023575;28;20052;-66
2022/10/02 09:35:41;;;;;;;3.90;3.30;;;19.80;92.60;;;;;;5057040;28;20036;-66
2022/10/02 09:38:43;;;;;;;3.42;3.13;;;19.80;92.40;;;;;;5077254;28;20426;-66
2022/10/02 09:41:12;;;;;;;3.72;3.38;;;19.80;92.20;;;;;;5069284;28;20032;-66
2022/10/02 09:44:17;;;;;;;3.88;3.42;;;19.90;92.20;;;;;;5073448;28;20043;-66
2022/10/02 09:46:46;;;;;;;3.47;3.17;;;19.90;91.90;;;;;;5069914;28;20028;-66
2022/10/02 09:49:42;;;;;;;4.18;3.35;;;19.90;91.60;;;;;;5068217;28;20438;-66
2022/10/02 09:52:34;;;;;;;4.45;3.10;;;19.90;91.40;;;;;;5069622;28;20438;-66
2022/10/02 09:55:03;;;;;;;5.13;3.78;;;19.80;91.10;;;;;;5065960;28;20103;-66
2022/10/02 09:57:40;;;;;;;4.43;3.75;;;19.80;91.10;;;;;;5069573;28;20024;-66
2022/10/02 10:00:29;;;;;;;3.70;3.30;;;19.70;91.00;;;;;;5065073;28;20035;-66
2022/10/02 10:03:21;;;;;;;4.20;3.70;;;19.70;90.90;;;;;;5068364;28;20029;-66
2022/10/02 10:06:06;;;;;;;3.70;3.10;;;19.60;90.70;;;;;;5066629;28;20548;-66
2022/10/02 10:08:43;;;;;;;3.72;3.20;;;19.60;90.90;;;;;;5070511;28;20025;-66
2022/10/02 10:11:41;;;;;;;3.22;2.90;;;19.50;90.80;;;;;;5069473;28;20479;-66
2022/10/02 10:14:28;;;;;;;4.10;3.30;;;19.50;90.70;;;;;;5043535;28;20037;-66
2022/10/02 10:17:12;;;;;;;3.45;3.15;;;19.50;90.70;;;;;;5070111;28;20103;-66
2022/10/02 10:19:58;;;;;;;3.58;3.15;;;19.50;90.60;;;;;;5052917;28;20025;-66
2022/10/02 10:22:42;;;;;;;3.80;3.30;;;19.50;90.30;;;;;;5066132;28;20047;-66
2022/10/02 10:25:32;;;;;;;4.20;3.60;;;19.40;90.00;;;;;;5061911;28;20017;-66
2022/10/02 10:28:33;;;;;;;3.70;3.00;;;19.30;89.50;;;;;;5062763;28;20033;-66
2022/10/02 10:31:02;;;;;;;4.60;3.25;;;19.30;89.80;;;;;;5062054;28;20033;-66
2022/10/02 10:33:40;;;;;;;3.35;2.85;;;19.20;90.00;;;;;;5062561;28;20450;-66
2022/10/02 10:39:18;;;;;;;2.83;2.53;;;19.10;89.70;;;;;;5063602;28;20035;-67
2022/10/02 10:41:58;;;;;;;3.72;2.63;;;19.10;89.50;;;;;;5054169;28;20399;-67
2022/10/02 10:44:36;;;;;;;3.50;3.20;;;19.10;89.30;;;;;;5069116;28;20049;-67
2022/10/02 10:47:19;;;;;;;2.65;2.30;;;19.10;89.10;;;;;;5066607;28;20341;-67
2022/10/02 10:50:04;;;;;;;3.28;2.70;;;19.00;89.00;;;;;;5065914;28;20051;-67
2022/10/02 10:52:48;;;;;;;2.85;2.58;;;19.00;88.70;;;;;;5056857;28;20069;-67
2022/10/02 10:55:18;;;;;;;3.22;2.40;;;19.00;88.70;;;;;;5068917;28;20024;-67
2022/10/02 10:58:11;;;;;;;3.80;2.50;;;19.00;88.90;;;;;;5068574;28;20028;-67
2022/10/02 11:01:04;;;;;;;2.60;2.30;;;19.10;88.60;;;;;;5068278;28;20028;-67
2022/10/02 11:03:46;;;;;;;2.97;2.53;;;19.10;88.60;;;;;;5066823;28;20020;-67
2022/10/02 11:06:36;;;;;;;2.25;2.10;;;19.20;88.20;;;;;;5069682;28;20036;-67
2022/10/02 11:09:20;;;;;;;2.55;2.33;;;19.20;87.50;;;;;;5067076;28;20467;-67
2022/10/02 11:11:45;;;;;;;2.50;2.30;;;19.20;86.90;;;;;;5073537;28;20040;-67
2022/10/02 11:14:33;;;;;;;2.13;2.00;;;19.20;86.30;;;;;;5070599;28;20021;-67
2022/10/02 11:17:16;;;;;;;2.45;2.25;;;19.10;86.30;;;;;;5071790;28;20025;-67
2022/10/02 11:20:19;;;;;;;1.90;1.80;;;19.10;85.90;;;;;;5067865;28;20031;-67
2022/10/02 11:22:59;;;;;;;1.90;1.80;;;19.10;85.60;;;;;;5064058;28;20502;-67
2022/10/02 11:25:54;;;;;;;2.22;2.05;;;19.00;85.20;;;;;;5073175;28;20020;-67
2022/10/02 11:28:48;;;;;;;1.75;1.65;;;19.00;85.30;;;;;;5071671;28;20037;-67
2022/10/02 11:31:26;;;;;;;1.60;1.50;;;19.00;85.30;;;;;;5070651;28;20032;-67
2022/10/02 11:34:06;;;;;;;1.88;1.77;;;19.10;85.60;;;;;;5057444;28;20396;-67
2022/10/02 11:36:58;;;;;;;1.75;1.65;;;19.10;85.20;;;;;;5071206;28;20024;-67
2022/10/02 11:39:36;;;;;;;1.70;1.60;;;19.10;84.90;;;;;;5072530;28;20029;-67
2022/10/02 11:42:20;;;;;;;1.70;1.60;;;19.10;84.80;;;;;;5073065;28;20020;-67
2022/10/02 11:45:10;;;;;;;1.80;1.70;;;19.10;84.60;;;;;;5072562;28;20127;-67
2022/10/02 11:47:45;;;;;;;1.63;1.52;;;19.10;84.90;;;;;;5071410;28;20056;-67
2022/10/02 11:50:39;;;;;;;1.70;1.60;;;19.10;84.60;;;;;;5070131;28;20036;-67
2022/10/02 11:53:33;;;;;;;1.40;1.30;;;19.10;84.40;;;;;;5070813;28;20426;-67
2022/10/02 11:56:34;;;;;;;1.58;1.48;;;19.10;84.20;;;;;;5067246;28;20450;-67
2022/10/02 11:59:42;;;;;;;1.60;1.50;;;19.10;84.00;;;;;;5070675;28;20016;-67
2022/10/02 12:02:15;;;;;;;2.00;1.38;;;19.00;83.40;;;;;;5076073;28;20024;-67
2022/10/02 12:04:56;;;;;;;1.35;1.25;;;18.90;83.30;;;;;;5071775;28;20016;-67
2022/10/02 12:07:45;;;;;;;1.38;1.27;;;18.80;83.20;;;;;;5070866;28;20025;-67
2022/10/02 12:10:38;;;;;;;1.27;1.17;;;18.70;83.30;;;;;;5082156;28;20096;-67
2022/10/02 12:13:15;;;;;;;1.48;1.38;;;18.60;83.50;;;;;;5075444;28;20098;-67
2022/10/02 12:15:47;;;;;;;1.60;1.50;;;18.50;83.50;;;;;;5063177;28;20042;-67
2022/10/02 12:18:21;;;;;;;1.38;1.30;;;18.50;83.30;;;;;;5077126;28;20040;-67
2022/10/02 12:27:11;;;;;;;1.00;1.00;;;18.30;83.80;;;;;;5061807;28;20127;-67
2022/10/02 12:30:05;;;;;;;1.10;1.05;;;18.30;83.80;;;;;;5071160;28;20391;-67
2022/10/02 12:32:37;;;;;;;1.75;0.95;;;18.30;83.90;;;;;;5067794;28;20096;-67
2022/10/02 12:35:31;;;;;;;1.00;1.00;;;18.40;84.20;;;;;;5070515;28;20042;-67
2022/10/02 12:38:34;;;;;;;0.85;0.85;;;18.40;83.90;;;;;;5071080;28;20114;-67
2022/10/02 12:41:35;;;;;;;1.60;1.20;;;18.40;83.60;;;;;;5077849;28;20112;-67
2022/10/02 12:44:04;;;;;;;1.48;1.30;;;18.40;83.40;;;;;;5075030;28;20529;-67
2022/10/02 12:46:58;;;;;;;2.05;1.80;;;18.30;83.10;;;;;;5066983;28;20488;-67
2022/10/02 12:49:45;;;;;;;1.90;1.77;;;18.20;82.60;;;;;;5065968;28;20035;-67
2022/10/02 12:52:48;;;;;;;1.83;1.73;;;18.10;82.50;;;;;;5061982;28;20013;-67
2022/10/02 12:55:33;;;;;;;1.80;1.70;;;18.00;82.60;;;;;;5069347;28;20016;-67
2022/10/02 12:58:27;;;;;;;1.60;1.50;;;18.00;82.50;;;;;;5068725;28;20048;-67
2022/10/02 13:01:29;;;;;;;1.90;1.80;;;17.90;82.30;;;;;;5067667;28;20209;-67
2022/10/02 13:03:54;;;;;;;1.73;1.63;;;17.80;82.00;;;;;;5068844;28;20028;-67
2022/10/02 13:06:28;;;;;;;3.03;2.28;;;17.70;81.90;;;;;;5067929;28;20479;-67
2022/10/02 13:09:17;;;;;;;2.53;1.95;;;17.70;81.40;;;;;;5071010;28;20025;-67
2022/10/02 13:12:10;;;;;;;1.77;1.50;;;17.60;80.90;;;;;;5066115;28;20056;-67
2022/10/02 13:15:00;;;;;;;2.50;1.98;;;17.50;80.90;;;;;;5060220;28;20028;-67
2022/10/02 13:17:44;;;;;;;1.92;1.75;;;17.40;81.10;;;;;;5069930;28;20052;-67
2022/10/02 13:20:25;;;;;;;1.50;1.40;;;17.30;81.40;;;;;;5065618;28;20036;-67
2022/10/02 13:23:18;;;;;;;2.10;1.90;;;17.30;81.40;;;;;;5071122;28;20024;-67
2022/10/02 13:25:57;;;;;;;2.67;1.90;;;17.20;80.60;;;;;;5059250;28;20081;-67
2022/10/02 13:28:48;;;;;;;2.42;2.22;;;17.10;80.40;;;;;;5065620;28;20150;-67
2022/10/02 13:31:29;;;;;;;2.10;1.90;;;17.10;80.20;;;;;;5049892;28;20112;-67
2022/10/02 13:34:07;;;;;;;1.58;1.48;;;16.90;80.20;;;;;;5057601;28;20384;-67
2022/10/02 13:37:00;;;;;;;2.08;1.90;;;16.90;80.60;;;;;;5062499;28;20447;-67
2022/10/02 13:40:11;;;;;;;2.30;2.10;;;16.80;80.50;;;;;;5064195;28;20480;-67
2022/10/02 13:42:53;;;;;;;2.10;1.90;;;16.80;80.10;;;;;;5062095;28;20063;-66
2022/10/02 13:45:44;;;;;;;1.50;1.40;;;16.70;79.80;;;;;;5062104;28;20104;-66
2022/10/02 13:48:33;;;;;;;1.40;1.30;;;16.70;79.30;;;;;;5056298;28;20028;-67
2022/10/02 13:51:04;;;;;;;2.08;1.40;;;16.60;79.30;;;;;;5065943;28;20047;-67
2022/10/02 13:53:47;;;;;;;2.17;1.48;;;16.50;79.10;;;;;;5059325;28;20024;-66
2022/10/02 13:56:25;;;;;;;1.90;1.80;;;16.40;78.80;;;;;;5059019;28;20036;-66
2022/10/02 13:59:11;;;;;;;1.65;1.55;;;16.40;78.90;;;;;;5069078;28;20046;-67
2022/10/02 14:01:58;;;;;;;1.38;1.27;;;16.40;78.90;;;;;;5073614;28;20028;-67
2022/10/02 14:04:54;;;;;;;1.42;1.33;;;16.30;78.90;;;;;;5068707;28;20051;-66
2022/10/02 14:07:41;;;;;;;1.95;1.50;;;16.30;79.00;;;;;;5067294;28;20505;-66
2022/10/02 14:10:21;;;;;;;1.48;1.38;;;16.30;78.50;;;;;;5061394;28;20024;-66